sensor_id;sensor_type;location;lat;lon;timestamp;pressure;altitude;pressure_sealevel;temperature
64947;BMP280;51469;52.150;4.682;2023-03-26T00:00:27;100893.44;;;15.19
64947;BMP280;51469;52.150;4.682;2023-03-26T00:02:52;100892.69;;;15.11
64947;BMP280;51469;52.150;4.682;2023-03-26T00:05:18;100900.25;;;15.00
64947;BMP280;51469;52.150;4.682;2023-03-26T00:07:44;100902.31;;;14.89
64947;BMP280;51469;52.150;4.682;2023-03-26T00:10:10;100895.28;;;14.74
64947;BMP280;51469;52.150;4.682;2023-03-26T00:12:35;100896.50;;;14.66
64947;BMP280;51469;52.150;4.682;2023-03-26T00:15:02;100902.06;;;14.63
64947;BMP280;51469;52.150;4.682;2023-03-26T00:17:28;100891.41;;;14.57
64947;BMP280;51469;52.150;4.682;2023-03-26T00:19:53;100885.13;;;14.57
64947;BMP280;51469;52.150;4.682;2023-03-26T00:22:21;100881.94;;;14.58
64947;BMP280;51469;52.150;4.682;2023-03-26T00:24:47;100874.84;;;14.61
64947;BMP280;51469;52.150;4.682;2023-03-26T00:27:15;100873.22;;;14.67
64947;BMP280;51469;52.150;4.682;2023-03-26T00:29:41;100871.66;;;14.66
64947;BMP280;51469;52.150;4.682;2023-03-26T00:32:07;100872.88;;;14.58
64947;BMP280;51469;52.150;4.682;2023-03-26T00:34:32;100866.16;;;14.66
64947;BMP280;51469;52.150;4.682;2023-03-26T00:36:58;100866.13;;;14.73
64947;BMP280;51469;52.150;4.682;2023-03-26T00:39:26;100855.81;;;14.77
64947;BMP280;51469;52.150;4.682;2023-03-26T00:41:53;100861.34;;;14.77
64947;BMP280;51469;52.150;4.682;2023-03-26T00:44:19;100843.63;;;14.71
64947;BMP280;51469;52.150;4.682;2023-03-26T00:46:45;100852.66;;;14.75
64947;BMP280;51469;52.150;4.682;2023-03-26T00:49:10;100840.03;;;14.77
64947;BMP280;51469;52.150;4.682;2023-03-26T00:51:41;100840.03;;;14.77
64947;BMP280;51469;52.150;4.682;2023-03-26T00:54:07;100843.94;;;14.83
64947;BMP280;51469;52.150;4.682;2023-03-26T00:56:33;100847.78;;;14.93
64947;BMP280;51469;52.150;4.682;2023-03-26T00:58:59;100840.78;;;14.85
64947;BMP280;51469;52.150;4.682;2023-03-26T01:01:25;100834.88;;;14.83
64947;BMP280;51469;52.150;4.682;2023-03-26T01:03:52;100839.56;;;14.86
64947;BMP280;51469;52.150;4.682;2023-03-26T01:06:32;100828.88;;;14.88
64947;BMP280;51469;52.150;4.682;2023-03-26T01:09:15;100824.94;;;14.93
64947;BMP280;51469;52.150;4.682;2023-03-26T01:11:41;100817.78;;;14.98
64947;BMP280;51469;52.150;4.682;2023-03-26T01:16:38;100799.63;;;15.01
64947;BMP280;51469;52.150;4.682;2023-03-26T01:19:13;100802.44;;;14.94
64947;BMP280;51469;52.150;4.682;2023-03-26T01:21:40;100801.66;;;14.90
64947;BMP280;51469;52.150;4.682;2023-03-26T01:24:07;100797.78;;;14.84
64947;BMP280;51469;52.150;4.682;2023-03-26T01:26:52;100797.38;;;14.82
64947;BMP280;51469;52.150;4.682;2023-03-26T01:34:52;100789.63;;;14.63
64947;BMP280;51469;52.150;4.682;2023-03-26T01:40:28;100779.38;;;14.60
64947;BMP280;51469;52.150;4.682;2023-03-26T01:43:12;100786.81;;;14.70
64947;BMP280;51469;52.150;4.682;2023-03-26T01:45:40;100779.31;;;14.74
64947;BMP280;51469;52.150;4.682;2023-03-26T01:48:06;100792.72;;;14.72
64947;BMP280;51469;52.150;4.682;2023-03-26T01:50:32;100776.13;;;14.79
64947;BMP280;51469;52.150;4.682;2023-03-26T01:52:57;100774.47;;;14.85
64947;BMP280;51469;52.150;4.682;2023-03-26T01:55:31;100767.34;;;14.91
64947;BMP280;51469;52.150;4.682;2023-03-26T01:58:07;100768.09;;;14.91
64947;BMP280;51469;52.150;4.682;2023-03-26T02:00:41;100765.72;;;14.97
64947;BMP280;51469;52.150;4.682;2023-03-26T02:03:27;100765.00;;;14.90
64947;BMP280;51469;52.150;4.682;2023-03-26T02:06:01;100748.34;;;14.93
64947;BMP280;51469;52.150;4.682;2023-03-26T02:08:32;100746.88;;;14.85
64947;BMP280;51469;52.150;4.682;2023-03-26T02:11:12;100743.78;;;14.76
64947;BMP280;51469;52.150;4.682;2023-03-26T02:13:40;100734.78;;;14.65
64947;BMP280;51469;52.150;4.682;2023-03-26T02:16:08;100742.75;;;14.56
64947;BMP280;51469;52.150;4.682;2023-03-26T02:18:36;100732.16;;;14.51
64947;BMP280;51469;52.150;4.682;2023-03-26T02:21:23;100732.16;;;14.51
64947;BMP280;51469;52.150;4.682;2023-03-26T02:23:53;100725.84;;;14.47
64947;BMP280;51469;52.150;4.682;2023-03-26T02:26:28;100731.75;;;14.49
64947;BMP280;51469;52.150;4.682;2023-03-26T02:28:55;100734.47;;;14.56
64947;BMP280;51469;52.150;4.682;2023-03-26T02:31:21;100735.97;;;14.64
64947;BMP280;51469;52.150;4.682;2023-03-26T02:33:51;100737.50;;;14.72
64947;BMP280;51469;52.150;4.682;2023-03-26T02:36:16;100731.13;;;14.78
64947;BMP280;51469;52.150;4.682;2023-03-26T02:38:46;100717.28;;;14.82
64947;BMP280;51469;52.150;4.682;2023-03-26T02:41:11;100721.94;;;14.92
64947;BMP280;51469;52.150;4.682;2023-03-26T02:43:36;100724.63;;;14.99
64947;BMP280;51469;52.150;4.682;2023-03-26T02:46:02;100715.91;;;15.04
64947;BMP280;51469;52.150;4.682;2023-03-26T02:48:27;100711.91;;;15.08
64947;BMP280;51469;52.150;4.682;2023-03-26T02:50:52;100713.44;;;15.13
64947;BMP280;51469;52.150;4.682;2023-03-26T02:53:21;100714.19;;;15.17
64947;BMP280;51469;52.150;4.682;2023-03-26T02:55:48;100699.53;;;15.20
64947;BMP280;51469;52.150;4.682;2023-03-26T02:58:14;100702.69;;;15.22
64947;BMP280;51469;52.150;4.682;2023-03-26T03:00:43;100702.28;;;15.24
64947;BMP280;51469;52.150;4.682;2023-03-26T03:03:08;100701.50;;;15.23
64947;BMP280;51469;52.150;4.682;2023-03-26T03:05:34;100699.88;;;15.26
64947;BMP280;51469;52.150;4.682;2023-03-26T03:08:03;100691.19;;;15.27
64947;BMP280;51469;52.150;4.682;2023-03-26T03:10:30;100693.53;;;15.29
64947;BMP280;51469;52.150;4.682;2023-03-26T03:12:57;100688.75;;;15.32
64947;BMP280;51469;52.150;4.682;2023-03-26T03:15:23;100688.69;;;15.36
64947;BMP280;51469;52.150;4.682;2023-03-26T03:17:49;100687.94;;;15.36
64947;BMP280;51469;52.150;4.682;2023-03-26T03:20:14;100693.88;;;15.34
64947;BMP280;51469;52.150;4.682;2023-03-26T03:22:40;100698.22;;;15.35
64947;BMP280;51469;52.150;4.682;2023-03-26T03:25:06;100688.75;;;15.32
64947;BMP280;51469;52.150;4.682;2023-03-26T03:27:41;100688.69;;;15.36
64947;BMP280;51469;52.150;4.682;2023-03-26T03:30:08;100685.19;;;15.36
64947;BMP280;51469;52.150;4.682;2023-03-26T03:32:35;100685.50;;;15.41
64947;BMP280;51469;52.150;4.682;2023-03-26T03:35:00;100674.91;;;15.32
64947;BMP280;51469;52.150;4.682;2023-03-26T03:37:25;100684.75;;;15.37
64947;BMP280;51469;52.150;4.682;2023-03-26T03:39:51;100680.78;;;15.38
64947;BMP280;51469;52.150;4.682;2023-03-26T03:42:17;100674.44;;;15.41
64947;BMP280;51469;52.150;4.682;2023-03-26T03:44:42;100671.22;;;15.46
64947;BMP280;51469;52.150;4.682;2023-03-26T03:47:08;100671.56;;;15.48
64947;BMP280;51469;52.150;4.682;2023-03-26T03:49:38;100665.63;;;15.50
64947;BMP280;51469;52.150;4.682;2023-03-26T03:52:03;100655.00;;;15.48
64947;BMP280;51469;52.150;4.682;2023-03-26T03:54:28;100651.41;;;15.51
64947;BMP280;51469;52.150;4.682;2023-03-26T03:56:54;100649.00;;;15.53
64947;BMP280;51469;52.150;4.682;2023-03-26T03:59:19;100657.72;;;15.52
64947;BMP280;51469;52.150;4.682;2023-03-26T04:01:45;100650.56;;;15.54
64947;BMP280;51469;52.150;4.682;2023-03-26T04:04:11;100647.31;;;15.59
64947;BMP280;51469;52.150;4.682;2023-03-26T04:06:36;100643.38;;;15.60
64947;BMP280;51469;52.150;4.682;2023-03-26T04:09:02;100638.72;;;15.57
64947;BMP280;51469;52.150;4.682;2023-03-26T04:11:28;100640.25;;;15.58
64947;BMP280;51469;52.150;4.682;2023-03-26T04:13:53;100633.91;;;15.61
64947;BMP280;51469;52.150;4.682;2023-03-26T04:16:19;100633.03;;;15.64
64947;BMP280;51469;52.150;4.682;2023-03-26T04:18:45;100629.19;;;15.58
64947;BMP280;51469;52.150;4.682;2023-03-26T04:21:10;100620.53;;;15.56
64947;BMP280;51469;52.150;4.682;2023-03-26T04:23:37;100624.13;;;15.53
64947;BMP280;51469;52.150;4.682;2023-03-26T04:26:06;100613.44;;;15.55
64947;BMP280;51469;52.150;4.682;2023-03-26T04:31:16;100609.47;;;15.56
64947;BMP280;51469;52.150;4.682;2023-03-26T04:33:44;100600.78;;;15.54
64947;BMP280;51469;52.150;4.682;2023-03-26T04:36:14;100594.56;;;15.50
64947;BMP280;51469;52.150;4.682;2023-03-26T04:38:45;100589.50;;;15.45
64947;BMP280;51469;52.150;4.682;2023-03-26T04:41:14;100589.94;;;15.40
64947;BMP280;51469;52.150;4.682;2023-03-26T04:43:40;100571.97;;;15.25
64947;BMP280;51469;52.150;4.682;2023-03-26T04:46:14;100590.81;;;15.34
64947;BMP280;51469;52.150;4.682;2023-03-26T04:48:42;100578.97;;;15.33
64947;BMP280;51469;52.150;4.682;2023-03-26T04:51:08;100571.16;;;15.28
64947;BMP280;51469;52.150;4.682;2023-03-26T04:53:42;100572.34;;;15.27
64947;BMP280;51469;52.150;4.682;2023-03-26T04:58:51;100561.00;;;15.18
64947;BMP280;51469;52.150;4.682;2023-03-26T05:01:21;100568.47;;;15.21
64947;BMP280;51469;52.150;4.682;2023-03-26T05:03:48;100558.25;;;15.18
64947;BMP280;51469;52.150;4.682;2023-03-26T05:06:15;100553.94;;;15.17
64947;BMP280;51469;52.150;4.682;2023-03-26T05:08:41;100555.50;;;15.18
64947;BMP280;51469;52.150;4.682;2023-03-26T05:11:09;100555.50;;;15.18
64947;BMP280;51469;52.150;4.682;2023-03-26T05:13:36;100547.56;;;15.20
64947;BMP280;51469;52.150;4.682;2023-03-26T05:16:01;100553.88;;;15.21
64947;BMP280;51469;52.150;4.682;2023-03-26T05:18:26;100545.19;;;15.22
64947;BMP280;51469;52.150;4.682;2023-03-26T05:20:52;100546.72;;;15.23
64947;BMP280;51469;52.150;4.682;2023-03-26T05:23:17;100549.13;;;15.21
64947;BMP280;51469;52.150;4.682;2023-03-26T05:25:42;100544.44;;;15.18
64947;BMP280;51469;52.150;4.682;2023-03-26T05:28:09;100536.16;;;15.18
64947;BMP280;51469;52.150;4.682;2023-03-26T05:30:35;100514.84;;;15.19
64947;BMP280;51469;52.150;4.682;2023-03-26T05:33:00;100520.72;;;15.21
64947;BMP280;51469;52.150;4.682;2023-03-26T05:35:27;100512.88;;;15.19
64947;BMP280;51469;52.150;4.682;2023-03-26T05:37:52;100504.91;;;15.21
64947;BMP280;51469;52.150;4.682;2023-03-26T05:40:18;100507.34;;;15.19
64947;BMP280;51469;52.150;4.682;2023-03-26T05:42:44;100506.50;;;15.22
64947;BMP280;51469;52.150;4.682;2023-03-26T05:45:11;100503.31;;;15.24
64947;BMP280;51469;52.150;4.682;2023-03-26T05:47:37;100498.59;;;15.24
64947;BMP280;51469;52.150;4.682;2023-03-26T05:50:03;100495.44;;;15.22
64947;BMP280;51469;52.150;4.682;2023-03-26T05:52:29;100491.56;;;15.16
64947;BMP280;51469;52.150;4.682;2023-03-26T05:54:54;100490.00;;;15.15
64947;BMP280;51469;52.150;4.682;2023-03-26T05:57:20;100489.16;;;15.18
64947;BMP280;51469;52.150;4.682;2023-03-26T05:59:46;100487.63;;;15.17
64947;BMP280;51469;52.150;4.682;2023-03-26T06:02:12;100486.44;;;15.14
64947;BMP280;51469;52.150;4.682;2023-03-26T06:04:38;100486.03;;;15.16
64947;BMP280;51469;52.150;4.682;2023-03-26T06:07:06;100485.22;;;15.19
64947;BMP280;51469;52.150;4.682;2023-03-26T06:09:35;100488.00;;;15.19
64947;BMP280;51469;52.150;4.682;2023-03-26T06:12:04;100481.22;;;15.20
64947;BMP280;51469;52.150;4.682;2023-03-26T06:14:29;100480.44;;;15.19
64947;BMP280;51469;52.150;4.682;2023-03-26T06:16:55;100487.56;;;15.21
64947;BMP280;51469;52.150;4.682;2023-03-26T06:19:20;100481.22;;;15.24
64947;BMP280;51469;52.150;4.682;2023-03-26T06:21:45;100489.06;;;15.25
64947;BMP280;51469;52.150;4.682;2023-03-26T06:24:11;100482.72;;;15.28
64947;BMP280;51469;52.150;4.682;2023-03-26T06:26:36;100485.84;;;15.30
64947;BMP280;51469;52.150;4.682;2023-03-26T06:29:02;100482.66;;;15.32
64947;BMP280;51469;52.150;4.682;2023-03-26T06:31:27;100477.91;;;15.32
64947;BMP280;51469;52.150;4.682;2023-03-26T06:33:52;100481.06;;;15.34
64947;BMP280;51469;52.150;4.682;2023-03-26T06:36:18;100480.97;;;15.38
64947;BMP280;51469;52.150;4.682;2023-03-26T06:38:43;100483.34;;;15.39
64947;BMP280;51469;52.150;4.682;2023-03-26T06:41:08;100490.44;;;15.40
64947;BMP280;51469;52.150;4.682;2023-03-26T06:43:34;100474.03;;;15.26
64947;BMP280;51469;52.150;4.682;2023-03-26T06:46:01;100478.78;;;15.29
64947;BMP280;51469;52.150;4.682;2023-03-26T06:48:27;100467.72;;;15.29
64947;BMP280;51469;52.150;4.682;2023-03-26T06:50:52;100470.16;;;15.24
64947;BMP280;51469;52.150;4.682;2023-03-26T06:53:18;100478.13;;;15.18
64947;BMP280;51469;52.150;4.682;2023-03-26T06:55:43;100482.09;;;15.17
64947;BMP280;51469;52.150;4.682;2023-03-26T06:58:11;100478.94;;;15.15
64947;BMP280;51469;52.150;4.682;2023-03-26T07:00:36;100476.56;;;15.17
64947;BMP280;51469;52.150;4.682;2023-03-26T07:03:03;100478.84;;;15.22
64947;BMP280;51469;52.150;4.682;2023-03-26T07:05:29;100478.78;;;15.29
64947;BMP280;51469;52.150;4.682;2023-03-26T07:07:54;100481.56;;;15.26
64947;BMP280;51469;52.150;4.682;2023-03-26T07:10:20;100475.63;;;15.27
64947;BMP280;51469;52.150;4.682;2023-03-26T07:12:45;100485.84;;;15.30
64947;BMP280;51469;52.150;4.682;2023-03-26T07:15:11;100486.91;;;15.36
64947;BMP280;51469;52.150;4.682;2023-03-26T07:17:36;100477.09;;;15.35
64947;BMP280;51469;52.150;4.682;2023-03-26T07:20:03;100477.81;;;15.39
64947;BMP280;51469;52.150;4.682;2023-03-26T07:22:29;100476.94;;;15.46
64947;BMP280;51469;52.150;4.682;2023-03-26T07:24:55;100480.97;;;15.38
64947;BMP280;51469;52.150;4.682;2023-03-26T07:27:44;100482.16;;;15.40
64947;BMP280;51469;52.150;4.682;2023-03-26T07:30:18;100476.31;;;15.31
64947;BMP280;51469;52.150;4.682;2023-03-26T07:35:47;100476.03;;;15.52
64947;BMP280;51469;52.150;4.682;2023-03-26T07:41:17;100472.03;;;15.57
64947;BMP280;51469;52.150;4.682;2023-03-26T07:46:28;100471.16;;;15.60
64947;BMP280;51469;52.150;4.682;2023-03-26T07:48:56;100476.03;;;15.52
64947;BMP280;51469;52.150;4.682;2023-03-26T07:51:24;100467.31;;;15.54
64947;BMP280;51469;52.150;4.682;2023-03-26T07:53:50;100467.28;;;15.57
64947;BMP280;51469;52.150;4.682;2023-03-26T07:56:18;100468.94;;;15.51
64947;BMP280;51469;52.150;4.682;2023-03-26T08:10:08;100460.59;;;15.28
64947;BMP280;51469;52.150;4.682;2023-03-26T08:16:02;100466.34;;;15.14
64947;BMP280;51469;52.150;4.682;2023-03-26T08:18:44;100462.47;;;15.08
64947;BMP280;51469;52.150;4.682;2023-03-26T08:21:14;100468.66;;;15.19
64947;BMP280;51469;52.150;4.682;2023-03-26T08:23:59;100464.03;;;15.09
64947;BMP280;51469;52.150;4.682;2023-03-26T08:32:49;100467.28;;;14.74
64947;BMP280;51469;52.150;4.682;2023-03-26T08:35:17;100469.00;;;14.61
64947;BMP280;51469;52.150;4.682;2023-03-26T08:37:42;100475.59;;;14.70
64947;BMP280;51469;52.150;4.682;2023-03-26T08:40:10;100471.13;;;14.50
64947;BMP280;51469;52.150;4.682;2023-03-26T09:13:48;100489.25;;;14.51
64947;BMP280;51469;52.150;4.682;2023-03-26T09:16:08;100483.28;;;14.86
64947;BMP280;51469;52.150;4.682;2023-03-26T09:18:56;100490.00;;;14.85
64947;BMP280;51469;52.150;4.682;2023-03-26T09:24:31;100480.13;;;15.14
64947;BMP280;51469;52.150;4.682;2023-03-26T09:30:25;100487.13;;;14.92
64947;BMP280;51469;52.150;4.682;2023-03-26T09:49:26;100503.72;;;14.92
64947;BMP280;51469;52.150;4.682;2023-03-26T10:00:40;100514.22;;;14.70
64947;BMP280;51469;52.150;4.682;2023-03-26T10:08:41;100519.41;;;14.65
64947;BMP280;51469;52.150;4.682;2023-03-26T10:16:48;100535.72;;;14.15
64947;BMP280;51469;52.150;4.682;2023-03-26T10:19:30;100532.22;;;14.08
64947;BMP280;51469;52.150;4.682;2023-03-26T10:22:30;100533.94;;;13.88
64947;BMP280;51469;52.150;4.682;2023-03-26T10:25:21;100536.81;;;14.25
64947;BMP280;51469;52.150;4.682;2023-03-26T10:33:35;100542.31;;;14.25
64947;BMP280;51469;52.150;4.682;2023-03-26T10:36:11;100544.50;;;14.40
64947;BMP280;51469;52.150;4.682;2023-03-26T10:53:03;100580.00;;;14.42
64947;BMP280;51469;52.150;4.682;2023-03-26T10:55:35;100579.00;;;14.66
64947;BMP280;51469;52.150;4.682;2023-03-26T10:58:14;100573.84;;;14.68
64947;BMP280;51469;52.150;4.682;2023-03-26T11:00:53;100576.78;;;14.47
64947;BMP280;51469;52.150;4.682;2023-03-26T11:03:55;100579.94;;;14.49
64947;BMP280;51469;52.150;4.682;2023-03-26T11:11:54;100587.06;;;14.46
64947;BMP280;51469;52.150;4.682;2023-03-26T11:17:38;100591.16;;;14.28
64947;BMP280;51469;52.150;4.682;2023-03-26T11:20:16;100599.88;;;14.23
64947;BMP280;51469;52.150;4.682;2023-03-26T11:23:50;100595.94;;;14.20
64947;BMP280;51469;52.150;4.682;2023-03-26T11:33:58;100596.06;;;14.54
64947;BMP280;51469;52.150;4.682;2023-03-26T11:36:33;100604.34;;;14.10
64947;BMP280;51469;52.150;4.682;2023-03-26T11:39:02;100609.97;;;14.43
64947;BMP280;51469;52.150;4.682;2023-03-26T11:41:28;100611.59;;;14.37
64947;BMP280;51469;52.150;4.682;2023-03-26T11:46:43;100610.91;;;15.04
64947;BMP280;51469;52.150;4.682;2023-03-26T11:49:11;100629.25;;;14.91
64947;BMP280;51469;52.150;4.682;2023-03-26T11:51:39;100622.50;;;15.26
64947;BMP280;51469;52.150;4.682;2023-03-26T11:54:06;100630.09;;;15.48
64947;BMP280;51469;52.150;4.682;2023-03-26T12:04:44;100637.41;;;15.35
64947;BMP280;51469;52.150;4.682;2023-03-26T12:09:56;100634.63;;;15.02
64947;BMP280;51469;52.150;4.682;2023-03-26T12:12:36;100642.47;;;15.03
64947;BMP280;51469;52.150;4.682;2023-03-26T12:15:03;100637.41;;;15.35
64947;BMP280;51469;52.150;4.682;2023-03-26T12:17:34;100645.63;;;15.69
64947;BMP280;51469;52.150;4.682;2023-03-26T12:20:01;100649.63;;;15.64
64947;BMP280;51469;52.150;4.682;2023-03-26T12:22:46;100643.88;;;16.08
64947;BMP280;51469;52.150;4.682;2023-03-26T12:25:18;100641.00;;;16.15
64947;BMP280;51469;52.150;4.682;2023-03-26T12:27:49;100642.44;;;16.23
64947;BMP280;51469;52.150;4.682;2023-03-26T12:30:22;100653.88;;;16.48
64947;BMP280;51469;52.150;4.682;2023-03-26T12:32:49;100659.22;;;16.82
64947;BMP280;51469;52.150;4.682;2023-03-26T12:35:22;100660.16;;;16.29
64947;BMP280;51469;52.150;4.682;2023-03-26T12:37:51;100664.84;;;16.06
64947;BMP280;51469;52.150;4.682;2023-03-26T12:40:27;100672.94;;;16.46
64947;BMP280;51469;52.150;4.682;2023-03-26T12:42:55;100680.56;;;16.62
64947;BMP280;51469;52.150;4.682;2023-03-26T12:45:27;100681.88;;;16.31
64947;BMP280;51469;52.150;4.682;2023-03-26T12:47:53;100677.44;;;16.37
64947;BMP280;51469;52.150;4.682;2023-03-26T12:50:22;100691.81;;;16.51
64947;BMP280;51469;52.150;4.682;2023-03-26T12:53:01;100684.19;;;16.32
64947;BMP280;51469;52.150;4.682;2023-03-26T13:07:11;100706.63;;;16.64
64947;BMP280;51469;52.150;4.682;2023-03-26T13:15:33;100707.50;;;17.04
64947;BMP280;51469;52.150;4.682;2023-03-26T13:25:43;100711.31;;;16.90
64947;BMP280;51469;52.150;4.682;2023-03-26T13:35:58;100706.16;;;16.92
64947;BMP280;51469;52.150;4.682;2023-03-26T13:38:55;100714.09;;;16.90
64947;BMP280;51469;52.150;4.682;2023-03-26T13:41:32;100727.94;;;16.67
64947;BMP280;51469;52.150;4.682;2023-03-26T13:44:27;100714.69;;;17.01
64947;BMP280;51469;52.150;4.682;2023-03-26T13:47:02;100719.41;;;17.43
64947;BMP280;51469;52.150;4.682;2023-03-26T13:49:50;100707.03;;;17.28
64947;BMP280;51469;52.150;4.682;2023-03-26T13:52:23;100727.50;;;17.34
64947;BMP280;51469;52.150;4.682;2023-03-26T13:55:33;100732.94;;;17.41
64947;BMP280;51469;52.150;4.682;2023-03-26T14:00:58;100730.66;;;17.36
64947;BMP280;51469;52.150;4.682;2023-03-26T14:03:39;100739.41;;;16.92
64947;BMP280;51469;52.150;4.682;2023-03-26T14:06:23;100743.66;;;16.74
64947;BMP280;51469;52.150;4.682;2023-03-26T14:08:55;100753.53;;;16.75
64947;BMP280;51469;52.150;4.682;2023-03-26T14:11:33;100747.94;;;16.55
64947;BMP280;51469;52.150;4.682;2023-03-26T14:14:05;100757.66;;;16.14
64947;BMP280;51469;52.150;4.682;2023-03-26T14:16:38;100768.19;;;16.22
64947;BMP280;51469;52.150;4.682;2023-03-26T14:19:32;100771.53;;;16.63
64947;BMP280;51469;52.150;4.682;2023-03-26T14:22:20;100778.88;;;16.73
64947;BMP280;51469;52.150;4.682;2023-03-26T14:27:39;100779.66;;;16.24
64947;BMP280;51469;52.150;4.682;2023-03-26T14:32:51;100795.31;;;15.41
64947;BMP280;51469;52.150;4.682;2023-03-26T14:35:31;100812.34;;;15.69
64947;BMP280;51469;52.150;4.682;2023-03-26T14:38:18;100797.03;;;15.61
64947;BMP280;51469;52.150;4.682;2023-03-26T14:41:00;100805.78;;;15.93
64947;BMP280;51469;52.150;4.682;2023-03-26T14:51:46;100816.75;;;16.00
64947;BMP280;51469;52.150;4.682;2023-03-26T14:54:22;100815.91;;;16.03
64947;BMP280;51469;52.150;4.682;2023-03-26T15:20:06;100877.53;;;16.07
64947;BMP280;51469;52.150;4.682;2023-03-26T15:39:45;100919.50;;;15.18
64947;BMP280;51469;52.150;4.682;2023-03-26T15:42:31;100918.31;;;15.59
64947;BMP280;51469;52.150;4.682;2023-03-26T15:59:00;100954.50;;;14.73
64947;BMP280;51469;52.150;4.682;2023-03-26T16:01:44;100959.19;;;14.76
64947;BMP280;51469;52.150;4.682;2023-03-26T16:04:28;100961.72;;;15.18
64947;BMP280;51469;52.150;4.682;2023-03-26T16:07:05;100967.66;;;15.09
64947;BMP280;51469;52.150;4.682;2023-03-26T16:09:58;100967.75;;;14.99
64947;BMP280;51469;52.150;4.682;2023-03-26T16:12:32;100960.56;;;15.19
64947;BMP280;51469;52.150;4.682;2023-03-26T16:15:27;100990.31;;;15.52
64947;BMP280;51469;52.150;4.682;2023-03-26T16:18:15;100982.69;;;15.12
64947;BMP280;51469;52.150;4.682;2023-03-26T16:20:50;101001.38;;;14.80
64947;BMP280;51469;52.150;4.682;2023-03-26T16:23:34;100998.59;;;14.87
64947;BMP280;51469;52.150;4.682;2023-03-26T16:26:21;101009.81;;;14.38
64947;BMP280;51469;52.150;4.682;2023-03-26T16:33:52;101027.59;;;14.16
64947;BMP280;51469;52.150;4.682;2023-03-26T16:36:30;101042.19;;;13.92
64947;BMP280;51469;52.150;4.682;2023-03-26T16:41:28;101055.97;;;13.99
64947;BMP280;51469;52.150;4.682;2023-03-26T16:51:32;101077.59;;;13.83
64947;BMP280;51469;52.150;4.682;2023-03-26T16:54:20;101090.50;;;13.40
64947;BMP280;51469;52.150;4.682;2023-03-26T16:56:53;101085.47;;;13.67
64947;BMP280;51469;52.150;4.682;2023-03-26T16:59:46;101081.56;;;13.82
64947;BMP280;51469;52.150;4.682;2023-03-26T17:03:13;101100.47;;;13.87
64947;BMP280;51469;52.150;4.682;2023-03-26T17:05:24;101106.69;;;13.49
64947;BMP280;51469;52.150;4.682;2023-03-26T17:08:06;101102.03;;;13.74
64947;BMP280;51469;52.150;4.682;2023-03-26T17:10:55;101099.66;;;13.86
64947;BMP280;51469;52.150;4.682;2023-03-26T17:17:03;101123.31;;;13.91
64947;BMP280;51469;52.150;4.682;2023-03-26T17:24:53;101143.41;;;13.74
64947;BMP280;51469;52.150;4.682;2023-03-26T17:30:29;101146.69;;;13.15
64947;BMP280;51469;52.150;4.682;2023-03-26T17:35:43;101156.78;;;12.93
64947;BMP280;51469;52.150;4.682;2023-03-26T17:40:58;101162.28;;;12.90
64947;BMP280;51469;52.150;4.682;2023-03-26T17:45:59;101178.00;;;12.93
64947;BMP280;51469;52.150;4.682;2023-03-26T17:48:28;101179.66;;;13.01
64947;BMP280;51469;52.150;4.682;2023-03-26T17:53:42;101198.25;;;12.67
64947;BMP280;51469;52.150;4.682;2023-03-26T17:56:23;101198.78;;;12.40
64947;BMP280;51469;52.150;4.682;2023-03-26T17:58:51;101214.66;;;12.53
64947;BMP280;51469;52.150;4.682;2023-03-26T18:01:26;101224.00;;;12.42
64947;BMP280;51469;52.150;4.682;2023-03-26T18:03:55;101221.25;;;12.42
64947;BMP280;51469;52.150;4.682;2023-03-26T18:06:46;101232.69;;;12.44
64947;BMP280;51469;52.150;4.682;2023-03-26T18:17:30;101269.69;;;12.50
64947;BMP280;51469;52.150;4.682;2023-03-26T18:20:02;101269.81;;;12.27
64947;BMP280;51469;52.150;4.682;2023-03-26T18:22:32;101276.53;;;12.30
64947;BMP280;51469;52.150;4.682;2023-03-26T18:25:02;101286.00;;;12.32
64947;BMP280;51469;52.150;4.682;2023-03-26T18:27:39;101277.59;;;12.55
64947;BMP280;51469;52.150;4.682;2023-03-26T18:30:23;101289.47;;;12.66
64947;BMP280;51469;52.150;4.682;2023-03-26T18:33:11;101299.03;;;12.79
64947;BMP280;51469;52.150;4.682;2023-03-26T18:35:45;101308.59;;;12.85
64947;BMP280;51469;52.150;4.682;2023-03-26T18:38:32;101311.56;;;12.69
64947;BMP280;51469;52.150;4.682;2023-03-26T18:40:57;101311.94;;;12.68
64947;BMP280;51469;52.150;4.682;2023-03-26T18:43:23;101303.50;;;12.94
64947;BMP280;51469;52.150;4.682;2023-03-26T18:45:49;101319.53;;;12.78
64947;BMP280;51469;52.150;4.682;2023-03-26T18:48:20;101323.50;;;12.84
64947;BMP280;51469;52.150;4.682;2023-03-26T18:50:50;101322.66;;;12.80
64947;BMP280;51469;52.150;4.682;2023-03-26T18:53:25;101328.25;;;12.87
64947;BMP280;51469;52.150;4.682;2023-03-26T18:55:54;101349.22;;;12.62
64947;BMP280;51469;52.150;4.682;2023-03-26T18:58:28;101330.31;;;12.57
64947;BMP280;51469;52.150;4.682;2023-03-26T19:00:59;101346.06;;;12.60
64947;BMP280;51469;52.150;4.682;2023-03-26T19:03:26;101349.00;;;12.41
64947;BMP280;51469;52.150;4.682;2023-03-26T19:05:54;101360.34;;;12.36
64947;BMP280;51469;52.150;4.682;2023-03-26T19:08:21;101376.31;;;12.56
64947;BMP280;51469;52.150;4.682;2023-03-26T19:10:51;101364.91;;;12.58
64947;BMP280;51469;52.150;4.682;2023-03-26T19:13:21;101377.03;;;12.20
64947;BMP280;51469;52.150;4.682;2023-03-26T19:15:50;101380.41;;;12.40
64947;BMP280;51469;52.150;4.682;2023-03-26T19:18:22;101382.16;;;12.22
64947;BMP280;51469;52.150;4.682;2023-03-26T19:20:54;101390.34;;;12.18
64947;BMP280;51469;52.150;4.682;2023-03-26T19:23:24;101393.47;;;12.17
64947;BMP280;51469;52.150;4.682;2023-03-26T19:25:53;101394.31;;;12.21
64947;BMP280;51469;52.150;4.682;2023-03-26T19:28:23;101406.72;;;12.11
64947;BMP280;51469;52.150;4.682;2023-03-26T19:30:54;101410.72;;;12.14
64947;BMP280;51469;52.150;4.682;2023-03-26T19:33:22;101411.50;;;12.11
64947;BMP280;51469;52.150;4.682;2023-03-26T19:35:53;101412.31;;;11.89
64947;BMP280;51469;52.150;4.682;2023-03-26T19:38:26;101411.88;;;11.87